createdAt,value
2016-10-25T10:51:11.920Z,23
2016-10-25T10:51:40.787Z,23.09
2016-10-25T10:52:10.814Z,23.11
2016-10-25T10:52:40.808Z,23.11
2016-10-25T10:53:10.849Z,23.09
2016-10-25T10:56:40.582Z,23.15
2016-10-25T10:56:55.271Z,23.17
2016-10-25T10:57:25.342Z,23.18
2016-10-25T10:57:55.269Z,23.2
2016-10-25T10:58:25.342Z,23.26
2016-10-25T10:58:55.346Z,23.24
2016-10-25T10:59:25.371Z,23.22
2016-10-25T10:59:55.422Z,23.26
2016-10-25T11:00:25.411Z,23.22
2016-10-25T11:00:55.451Z,23.31
2016-10-25T11:01:37.617Z,23.27
2016-10-25T11:02:07.653Z,23.34
2016-10-25T11:02:37.691Z,23.35
2016-10-25T11:03:07.762Z,23.33
2016-10-25T11:03:37.760Z,23.42
2016-10-25T11:04:07.837Z,23.38
2016-10-25T11:04:37.839Z,23.53
2016-10-25T11:05:07.891Z,23.52
2016-10-25T11:05:37.902Z,23.63
2016-10-25T11:06:07.962Z,23.7
2016-10-25T11:06:37.998Z,23.67
2016-10-25T11:07:08.064Z,23.72
2016-10-25T11:07:38.054Z,23.68
2016-10-25T11:08:08.116Z,23.74
2016-10-25T11:08:38.141Z,23.87
2016-10-25T11:10:10.751Z,23.9
2016-10-25T11:10:25.303Z,23.92
2016-10-25T11:10:55.349Z,23.92
2016-10-25T11:11:25.371Z,23.89
2016-10-25T11:11:55.401Z,23.92
2016-10-25T11:12:25.501Z,23.89
2016-10-25T11:12:55.462Z,23.89
2016-10-25T11:13:25.521Z,23.93
2016-10-25T11:13:55.521Z,23.98
2016-10-25T11:14:25.604Z,24.01
2016-10-25T11:15:07.501Z,24.02
2016-10-25T11:15:37.441Z,24.08
2016-10-25T11:16:07.481Z,24.02
2016-10-25T11:16:37.552Z,24.07
2016-10-25T11:17:07.552Z,23.98
2016-10-25T11:17:37.681Z,24.16
2016-10-25T11:18:07.652Z,24.05
2016-10-25T11:18:37.701Z,24
2016-10-25T11:19:07.800Z,24.01
2016-10-25T11:19:37.771Z,24.02
2016-10-25T11:20:07.841Z,24.01
2016-10-25T11:20:37.822Z,24.08
2016-10-25T11:21:07.891Z,24.07
2016-10-25T11:21:37.902Z,24.05
2016-10-25T11:22:08.001Z,24.04
2016-10-25T11:23:05.323Z,24.07
2016-10-25T11:23:19.831Z,24.15
2016-10-25T11:23:49.851Z,24.22
2016-10-25T11:24:19.901Z,24.19
2016-10-25T11:24:50.203Z,24.25
2016-10-25T11:25:20.081Z,24.22
2016-10-25T11:25:50.041Z,24.26
2016-10-25T11:26:20.098Z,24.27
2016-10-25T11:26:50.091Z,24.35
2016-10-25T11:27:20.158Z,24.29
2016-10-25T11:27:50.174Z,24.27
2016-10-25T11:28:20.272Z,24.26
2016-10-25T11:28:50.261Z,24.35
2016-10-25T11:29:20.351Z,24.27
2016-10-25T11:29:50.500Z,24.37
2016-10-25T11:30:20.441Z,24.32
2016-10-25T11:30:50.418Z,24.32
2016-10-25T11:31:20.491Z,24.38
2016-10-25T11:31:50.510Z,24.32
2016-10-25T11:32:20.526Z,24.4
2016-10-25T11:32:50.530Z,24.37
2016-10-25T11:33:20.638Z,24.35
2016-10-25T11:33:50.639Z,24.41
2016-10-25T11:34:20.741Z,24.37
2016-10-25T11:34:50.921Z,24.47
2016-10-25T11:35:20.768Z,24.48
2016-10-25T11:35:50.960Z,24.5
2016-10-25T11:36:20.867Z,24.54
2016-10-25T11:36:50.908Z,24.5
2016-10-25T11:37:20.943Z,24.57
2016-10-25T11:37:50.993Z,24.41
2016-10-25T11:38:21.028Z,24.5
2016-10-25T11:38:51.201Z,24.54
2016-10-25T11:39:21.124Z,24.59
2016-10-25T11:39:51.103Z,24.64
2016-10-25T11:40:21.179Z,24.54
2016-10-25T11:40:51.222Z,24.63
2016-10-25T11:41:21.268Z,24.52
2016-10-25T11:41:51.280Z,24.44
2016-10-25T11:42:21.361Z,24.41
2016-10-25T11:42:51.360Z,24.53
2016-10-25T11:43:21.480Z,24.53
2016-10-25T11:43:51.430Z,24.56
2016-10-25T11:44:21.591Z,24.6
2016-10-25T11:44:51.552Z,24.62
2016-10-25T11:45:21.625Z,24.63
2016-10-25T11:45:51.600Z,24.57
2016-10-25T11:46:21.680Z,24.64
2016-10-25T11:46:51.680Z,24.71
2016-10-25T14:02:39.058Z,24.63
2016-10-25T14:03:03.508Z,24.52
2016-10-25T14:03:26.437Z,24.47
2016-10-25T14:03:48.171Z,24.48
2016-10-25T14:04:10.297Z,24.45
2016-10-25T14:04:32.608Z,24.4
2016-10-25T14:04:56.674Z,24.34
2016-10-25T14:05:19.118Z,24.23
2016-10-25T14:05:40.807Z,24.23
2016-10-25T14:06:03.248Z,24.2
2016-10-25T14:06:25.786Z,24.32
2016-10-25T14:06:48.088Z,24.34
2016-10-25T14:07:09.679Z,24.34
2016-10-25T14:07:32.013Z,24.22
2016-10-25T14:07:54.488Z,24.08
2016-10-25T14:08:16.211Z,24.12
2016-10-25T14:08:36.218Z,24.07
2016-10-25T14:10:56.512Z,24.63
2016-10-25T14:11:32.939Z,24.52
2016-10-25T14:12:07.857Z,24.4
2016-10-25T14:12:42.664Z,24.23
2016-10-25T14:13:17.493Z,24.29
2016-10-25T14:13:52.049Z,24.19
2016-10-25T14:14:26.193Z,24.2
2016-10-25T14:15:01.698Z,24.23
2016-10-25T14:16:35.296Z,24.25
2016-10-25T14:17:10.568Z,24.17
2016-10-25T14:17:45.808Z,24.2
2016-10-25T14:18:20.617Z,24.1
2016-10-25T14:18:55.829Z,24.11
2016-10-25T14:19:30.926Z,24.1
